This is the latest recevied weather packets stored in our database for station/object EW7404. If no packets are shown the sender has not sent any weather packets the latest 10 day(s).
| Time | Temp. | Humidity | Pressure | Rain* | Wind** | Luminosity | Snow |
|---|---|---|---|---|---|---|---|
| 1777526715 | 0° C | 100% | 949.2 hPa | 0 mm | - | - | - |
| 1777525515 | 0° C | 100% | 949.1 hPa | 0 mm | - | - | - |
| 1777524355 | 0° C | 100% | 948.8 hPa | 0 mm | - | - | - |
| 1777523115 | 0° C | 100% | 948.8 hPa | 0 mm | - | - | - |
| 1777522515 | 0.56° C | 100% | 949 hPa | 0 mm | - | - | - |
| 1777515916 | 0.56° C | 100% | 948.9 hPa | 0 mm | - | - | - |
| 1777514716 | 0.56° C | 100% | 949.1 hPa | 0 mm | - | - | - |
| 1777511715 | 0° C | 100% | 949.1 hPa | 6.1 mm | - | - | - |
| 1777510535 | 0° C | 100% | 949 hPa | 6.1 mm | - | - | - |
| 1777508716 | 0° C | 100% | 949.2 hPa | 0 mm | - | - | - |
| 1777508115 | 0° C | 100% | 949.3 hPa | 0 mm | - | - | - |
| 1777505716 | 1.67° C | 100% | 949.2 hPa | 0 mm | - | - | - |
| 1777501535 | 1.11° C | 100% | 949.4 hPa | 0 mm | - | - | - |
| 1777495515 | 1.67° C | 94% | 949.8 hPa | 0 mm | - | - | - |
| 1777494315 | 2.22° C | 87% | 950.1 hPa | 0 mm | - | - | - |
| 1777488915 | 1.67° C | 100% | 950.4 hPa | 65.02 mm | - | - | - |
| 1777485315 | 1.67° C | 95% | 950.3 hPa | 0 mm | - | - | - |
| 1777478715 | 1.11° C | 100% | 950.5 hPa | 0 mm | - | - | - |
| 1777477555 | 1.11° C | 100% | 950.5 hPa | 0 mm | - | - | - |
| 1777475115 | 2.78° C | 98% | 950.6 hPa | 5.08 mm | - | - | - |
| 1777473915 | 2.22° C | 95% | 950.6 hPa | 5.08 mm | - | - | - |
| 1777471515 | 2.78° C | 93% | 950.6 hPa | 0 mm | - | - | - |
| 1777462215 | 4.44° C | 65% | 951.5 hPa | 0 mm | - | - | - |
| 1777453835 | 2.78° C | 86% | 951.9 hPa | 0 mm | - | - | - |
| 1777453217 | 2.78° C | 87% | 951.9 hPa | 0 mm | - | - | - |
* Rain latest hour (hover to see other rain measurements)
** Current wind speed in m/s (hover to see current wind gust speed)